Archival Weather

Chicago O'Hare International

Chicago, Illinois (KORD)

Report from: Tuesday, December 6, 2022 3:51 AM CST
Current time: Saturday, February 4, 2023 11:05 PM CST

Current weather
Weather history
Weather forecast

Temperature2.8°C (37.0°F)
Wind chill-0.2°C (31.6°F)
Dew point-0.6°C (30.9°F)
Winds 6 kts (3.1 m/s, 6.9 mph) North (350°)
Visibility10 mi. (16.1 km)
Clouds Few clouds 3,400 ft. (1,036 m)
Ceiling: Overcast 9,500 ft. (2,896 m)
Altimeter29.94 in.Hg (1014 mB)
Relative humidity78 %
Density altitude-1,414 ft. (-431 m)
Sea-level pressure101.4 kPa (1014 mB, 29.96 in.Hg)
Remarks Automated weather observing station with precipitation discriminator
Flight conditions Visual Meteorological Conditions
Raw dataKORD 060951Z 35006KT 10SM FEW034 OVC095 03/M01 A2994 RMK AO2 SLP144 T00281006
An unhandled exception has occurred. See browser dev tools for details. Reload 🗙